createdAt,value
2023-01-10T00:00:19.952Z,11.58
2023-01-10T00:01:26.781Z,11.60
2023-01-10T00:02:18.199Z,11.60
2023-01-10T00:03:18.748Z,11.57
2023-01-10T00:04:17.148Z,11.59
2023-01-10T00:05:16.866Z,11.56
2023-01-10T00:06:16.570Z,11.56
2023-01-10T00:07:16.658Z,11.47
2023-01-10T00:08:16.501Z,11.48
2023-01-10T00:09:16.690Z,11.48
2023-01-10T00:10:16.971Z,11.47
2023-01-10T00:11:16.280Z,11.51
2023-01-10T00:12:16.823Z,11.56
2023-01-10T00:13:16.306Z,11.59
2023-01-10T00:14:16.746Z,11.51
2023-01-10T00:15:17.463Z,11.48
2023-01-10T00:16:16.825Z,11.59
2023-01-10T00:17:16.556Z,11.63
2023-01-10T00:18:16.333Z,11.60
2023-01-10T00:19:16.420Z,11.59
2023-01-10T00:20:16.989Z,11.60
2023-01-10T00:21:16.181Z,11.54
2023-01-10T00:22:16.053Z,11.60
2023-01-10T00:23:16.113Z,11.65
2023-01-10T00:24:15.941Z,11.64
2023-01-10T00:25:16.497Z,11.68
2023-01-10T00:26:16.254Z,11.65
2023-01-10T00:27:15.866Z,11.60
2023-01-10T00:28:16.087Z,11.51
2023-01-10T00:29:15.994Z,11.5
2023-01-10T00:30:16.476Z,11.50
2023-01-10T00:31:16.337Z,11.61
2023-01-10T00:32:16.471Z,11.69
2023-01-10T00:33:16.684Z,11.66
2023-01-10T00:34:17.008Z,11.64
2023-01-10T00:35:17.447Z,11.64
2023-01-10T00:36:16.547Z,11.67
2023-01-10T00:37:16.809Z,11.62
2023-01-10T00:38:17.187Z,11.58
2023-01-10T00:39:16.911Z,11.61
2023-01-10T00:40:17.344Z,11.63
2023-01-10T00:41:16.679Z,11.59
2023-01-10T00:42:15.807Z,11.66
2023-01-10T00:43:17.071Z,11.67
2023-01-10T00:44:16.431Z,11.68
2023-01-10T00:45:16.928Z,11.72
2023-01-10T00:46:17.072Z,11.77
2023-01-10T00:47:17.187Z,11.84
2023-01-10T00:48:16.900Z,11.86
2023-01-10T00:49:17.335Z,11.74
2023-01-10T00:50:17.194Z,11.72
2023-01-10T00:51:16.734Z,11.76
2023-01-10T00:52:17.002Z,11.78
2023-01-10T00:53:17.558Z,11.78
2023-01-10T00:54:16.943Z,11.69
2023-01-10T00:55:16.842Z,11.67
2023-01-10T00:56:16.509Z,11.68
2023-01-10T00:57:17.386Z,11.69
2023-01-10T00:58:16.432Z,11.73
2023-01-10T00:59:17.024Z,11.69
2023-01-10T01:00:18.284Z,11.68
2023-01-10T01:01:18.388Z,11.70
2023-01-10T01:02:16.695Z,11.68
2023-01-10T01:03:16.904Z,11.72
2023-01-10T01:04:16.072Z,11.79
2023-01-10T01:05:17.139Z,11.77
2023-01-10T01:06:17.120Z,11.77
2023-01-10T01:07:17.169Z,11.80
2023-01-10T01:08:16.415Z,11.88
2023-01-10T01:09:16.435Z,11.85
2023-01-10T01:10:16.152Z,11.80
2023-01-10T01:11:16.336Z,11.83
2023-01-10T01:12:16.201Z,11.77
2023-01-10T01:13:16.833Z,11.73
2023-01-10T01:14:16.746Z,11.82
2023-01-10T01:15:16.734Z,11.81
2023-01-10T01:16:16.493Z,11.76
2023-01-10T01:17:16.142Z,11.80
2023-01-10T01:18:16.661Z,11.76
2023-01-10T01:19:16.736Z,11.77
2023-01-10T01:20:16.448Z,11.91
2023-01-10T01:21:17.195Z,12
2023-01-10T01:22:16.222Z,12.05
2023-01-10T01:23:16.465Z,12.05
2023-01-10T01:24:16.228Z,12.11
2023-01-10T01:25:17.081Z,12.14
2023-01-10T01:26:15.876Z,12.10
2023-01-10T01:27:16.418Z,12.07
2023-01-10T01:28:16.023Z,12.06
2023-01-10T01:29:18.014Z,12.11
2023-01-10T01:30:17.155Z,12.15
2023-01-10T01:31:16.629Z,12.19
2023-01-10T01:32:16.325Z,12.12
2023-01-10T01:33:17.250Z,12.06
2023-01-10T01:34:17.167Z,11.97
2023-01-10T01:35:16.915Z,11.95
2023-01-10T01:36:16.630Z,11.89
2023-01-10T01:37:16.860Z,11.85
2023-01-10T01:38:16.412Z,11.89
2023-01-10T01:39:16.534Z,11.93
2023-01-10T01:40:16.875Z,11.88
2023-01-10T01:41:16.144Z,11.83
2023-01-10T01:42:16.827Z,11.87
2023-01-10T01:43:16.731Z,11.85
2023-01-10T01:44:16.647Z,11.83
2023-01-10T01:45:16.503Z,11.77
2023-01-10T01:46:16.635Z,11.77
2023-01-10T01:47:16.531Z,11.80
2023-01-10T01:48:17.077Z,11.78
2023-01-10T01:49:16.944Z,11.85
2023-01-10T01:50:16.710Z,11.85
2023-01-10T01:51:16.494Z,11.77
2023-01-10T01:52:16.297Z,11.75
2023-01-10T01:53:16.306Z,11.73
2023-01-10T01:54:16.377Z,11.80
2023-01-10T01:56:16.595Z,11.68
2023-01-10T01:57:16.590Z,11.60
2023-01-10T01:58:16.457Z,11.66
2023-01-10T01:59:16.205Z,11.59
2023-01-10T02:00:16.895Z,11.67
2023-01-10T02:01:16.505Z,11.67
2023-01-10T02:02:16.035Z,11.60
2023-01-10T02:03:16.122Z,11.60
2023-01-10T02:04:15.988Z,11.59
2023-01-10T02:05:16.156Z,11.55
2023-01-10T02:06:15.718Z,11.52
2023-01-10T02:07:16.174Z,11.54
2023-01-10T02:08:16.078Z,11.56
2023-01-10T02:09:15.952Z,11.51
2023-01-10T02:10:15.898Z,11.48
2023-01-10T02:11:16.126Z,11.49
2023-01-10T02:12:15.982Z,11.52
2023-01-10T02:13:15.720Z,11.52
2023-01-10T02:14:15.740Z,11.48
2023-01-10T02:15:16.699Z,11.51
2023-01-10T02:16:16.258Z,11.53
2023-01-10T02:17:16.186Z,11.60
2023-01-10T02:18:16.011Z,11.57
2023-01-10T02:19:16.167Z,11.47
2023-01-10T02:20:16.076Z,11.43
2023-01-10T02:21:16.269Z,11.44
2023-01-10T02:22:16.205Z,11.51
2023-01-10T02:23:16.261Z,11.56
2023-01-10T02:24:15.950Z,11.55
2023-01-10T02:25:16.358Z,11.48
2023-01-10T02:26:15.693Z,11.47
2023-01-10T02:27:15.911Z,11.47
2023-01-10T02:28:30.024Z,11.54
2023-01-10T02:29:16.175Z,11.66
2023-01-10T02:30:16.823Z,11.72
2023-01-10T02:31:16.774Z,11.74
2023-01-10T02:32:16.195Z,11.73
2023-01-10T02:33:16.036Z,11.72
2023-01-10T02:34:16.683Z,11.74
2023-01-10T02:35:16.315Z,11.66
2023-01-10T02:36:16.274Z,11.73
2023-01-10T02:37:16.084Z,11.70
2023-01-10T02:38:16.111Z,11.63
2023-01-10T02:39:16.352Z,11.62
2023-01-10T02:40:16.159Z,11.68
2023-01-10T02:41:16.811Z,11.72
2023-01-10T02:42:15.908Z,11.72
2023-01-10T02:43:16.594Z,11.72
2023-01-10T02:44:18.145Z,11.67
2023-01-10T02:45:16.771Z,11.73
2023-01-10T02:46:16.038Z,11.72
2023-01-10T02:47:16.492Z,11.65
2023-01-10T02:48:16.069Z,11.66
2023-01-10T02:49:16.477Z,11.63
2023-01-10T02:50:16.252Z,11.69
2023-01-10T02:51:16.113Z,11.71
2023-01-10T02:52:16.080Z,11.70
2023-01-10T02:53:16.335Z,11.75
2023-01-10T02:54:16.238Z,11.67
2023-01-10T02:55:16.575Z,11.70
2023-01-10T02:56:15.890Z,11.69
2023-01-10T02:57:16.194Z,11.60
2023-01-10T02:58:16.236Z,11.59
2023-01-10T02:59:16.159Z,11.69
2023-01-10T03:00:17.221Z,11.62
2023-01-10T03:01:16.322Z,11.59
2023-01-10T03:02:16.263Z,11.62
2023-01-10T03:03:16.544Z,11.67
2023-01-10T03:04:16.379Z,11.62
2023-01-10T03:05:16.305Z,11.52
2023-01-10T03:06:15.886Z,11.43
2023-01-10T03:07:16.353Z,11.47
2023-01-10T03:08:16.486Z,11.43
2023-01-10T03:09:15.914Z,11.39
2023-01-10T03:10:16.237Z,11.30
2023-01-10T03:11:16.515Z,11.28
2023-01-10T03:12:16.353Z,11.30
2023-01-10T03:13:16.119Z,11.29
2023-01-10T03:14:16.396Z,11.43
2023-01-10T03:15:16.687Z,11.43
2023-01-10T03:16:16.142Z,11.36
2023-01-10T03:17:16.412Z,11.29
2023-01-10T03:18:16.473Z,11.31
2023-01-10T03:19:16.555Z,11.22
2023-01-10T03:20:16.442Z,11.11
2023-01-10T03:21:16.559Z,11.11
2023-01-10T03:22:16.186Z,11.20
2023-01-10T03:23:16.805Z,11.23
2023-01-10T03:24:15.989Z,11.28
2023-01-10T03:25:16.447Z,11.25
2023-01-10T03:26:16.126Z,11.24
2023-01-10T03:27:16.254Z,11.20
2023-01-10T03:28:16.360Z,11.18
2023-01-10T03:29:16.249Z,11.18
2023-01-10T03:30:16.501Z,11.22
2023-01-10T03:31:16.365Z,11.20
2023-01-10T03:32:16.212Z,11.12
2023-01-10T03:33:16.591Z,11.06
2023-01-10T03:34:15.809Z,11.06
2023-01-10T03:35:16.139Z,11.12
2023-01-10T03:36:16.447Z,11.10
2023-01-10T03:37:15.692Z,11.03
2023-01-10T03:38:15.986Z,11.01
2023-01-10T03:39:16.145Z,11.02
2023-01-10T03:40:16.379Z,11.01
2023-01-10T03:41:16.373Z,11.07
2023-01-10T03:42:16.310Z,10.95
2023-01-10T03:43:16.452Z,10.91
2023-01-10T03:44:16.305Z,10.95
2023-01-10T03:45:16.578Z,10.96
2023-01-10T03:46:15.867Z,11.09
2023-01-10T03:47:15.953Z,11.11
2023-01-10T03:48:16.207Z,11.15
2023-01-10T03:49:16.412Z,11.19
2023-01-10T03:50:16.963Z,11.20
2023-01-10T03:51:15.674Z,11.14
2023-01-10T03:52:16.377Z,11.10
2023-01-10T03:53:16.291Z,11.06
2023-01-10T03:54:16.170Z,11.10
2023-01-10T03:55:16.324Z,11.16
2023-01-10T03:56:16.630Z,11.14
2023-01-10T03:57:15.734Z,11.03
2023-01-10T03:58:15.865Z,11.02
2023-01-10T03:59:16.185Z,10.93
2023-01-10T04:00:16.917Z,10.90
2023-01-10T04:01:16.320Z,10.88
2023-01-10T04:02:16.219Z,10.81
2023-01-10T04:03:16.097Z,10.80
2023-01-10T04:04:16.993Z,10.80
2023-01-10T04:05:16.711Z,10.77
2023-01-10T04:06:16.678Z,10.71
2023-01-10T04:07:16.497Z,10.61
2023-01-10T04:08:16.617Z,10.51
2023-01-10T04:09:16.587Z,10.59
2023-01-10T04:10:16.756Z,10.58
2023-01-10T04:11:16.598Z,10.55
2023-01-10T04:12:17.087Z,10.60
2023-01-10T04:13:16.746Z,10.59
2023-01-10T04:14:15.951Z,10.60
2023-01-10T04:15:16.510Z,10.69
2023-01-10T04:16:16.212Z,10.75
2023-01-10T04:17:16.391Z,10.71
2023-01-10T04:18:16.709Z,10.74
2023-01-10T04:19:16.269Z,10.71
2023-01-10T04:20:16.610Z,10.71
2023-01-10T04:21:16.166Z,10.72
2023-01-10T04:22:16.132Z,10.67
2023-01-10T04:23:16.338Z,10.61
2023-01-10T04:24:16.465Z,10.65
2023-01-10T04:25:16.660Z,10.75
2023-01-10T04:26:16.144Z,10.68
2023-01-10T04:27:16.302Z,10.69
2023-01-10T04:28:16.094Z,10.71
2023-01-10T04:29:16.403Z,10.63
2023-01-10T04:30:16.857Z,10.64
2023-01-10T04:31:15.948Z,10.62
2023-01-10T04:32:16.041Z,10.68
2023-01-10T04:33:16.171Z,10.78
2023-01-10T04:34:16.362Z,10.80
2023-01-10T04:35:16.751Z,10.82
2023-01-10T04:36:16.044Z,10.92
2023-01-10T04:37:16.444Z,10.93
2023-01-10T04:38:16.505Z,10.92
2023-01-10T04:39:16.162Z,10.95
2023-01-10T04:40:16.390Z,10.93
2023-01-10T04:41:16.301Z,10.91
2023-01-10T04:42:16.447Z,10.88
2023-01-10T04:43:16.289Z,10.89
2023-01-10T04:44:15.841Z,10.93
2023-01-10T04:45:16.344Z,10.93
2023-01-10T04:46:16.199Z,10.88
2023-01-10T04:47:16.145Z,10.84
2023-01-10T04:48:15.487Z,10.90
2023-01-10T04:49:15.855Z,10.92
2023-01-10T04:50:16.216Z,10.94
2023-01-10T04:51:16.356Z,10.97
2023-01-10T04:52:16.510Z,10.99
2023-01-10T04:53:16.129Z,10.98
2023-01-10T04:54:16.687Z,11.00
2023-01-10T04:55:16.888Z,10.96
2023-01-10T04:56:15.956Z,10.89
2023-01-10T04:57:16.741Z,10.86
2023-01-10T04:58:16.436Z,10.89
2023-01-10T04:59:16.670Z,10.92
2023-01-10T05:00:17.510Z,10.96
2023-01-10T05:01:16.556Z,10.93
2023-01-10T05:02:16.369Z,10.80
2023-01-10T05:03:16.697Z,10.81
2023-01-10T05:04:15.673Z,10.85
2023-01-10T05:05:16.356Z,10.89
2023-01-10T05:06:16.510Z,10.89
2023-01-10T05:07:16.092Z,10.82
2023-01-10T05:08:16.314Z,10.65
2023-01-10T05:09:15.732Z,10.77
2023-01-10T05:10:16.442Z,10.79
2023-01-10T05:11:16.508Z,10.86
2023-01-10T05:12:15.635Z,10.87
2023-01-10T05:13:16.112Z,10.90
2023-01-10T05:15:35.585Z,10.86
2023-01-10T05:16:16.436Z,10.83
2023-01-10T05:17:16.016Z,10.92
2023-01-10T05:18:16.226Z,10.97
2023-01-10T05:19:16.709Z,11
2023-01-10T05:20:16.169Z,11.01
2023-01-10T05:21:16.375Z,11.04
2023-01-10T05:22:16.293Z,11.06
2023-01-10T05:23:16.569Z,11.06
2023-01-10T05:24:16.526Z,11.03
2023-01-10T05:25:16.821Z,11.05
2023-01-10T05:26:16.079Z,11.09
2023-01-10T05:27:16.785Z,11.09
2023-01-10T05:28:15.582Z,11.13
2023-01-10T05:29:16.056Z,11.12
2023-01-10T05:30:16.625Z,11.14
2023-01-10T05:31:16.219Z,11.10
2023-01-10T05:32:16.253Z,11.06
2023-01-10T05:33:15.695Z,11.11
2023-01-10T05:34:15.535Z,11.15
2023-01-10T05:35:16.688Z,11.13
2023-01-10T05:36:16.000Z,11.05
2023-01-10T05:37:16.273Z,11.09
2023-01-10T05:38:15.975Z,11.02
2023-01-10T05:39:16.002Z,11.06
2023-01-10T05:40:16.073Z,11.02
2023-01-10T05:41:16.263Z,11.02
2023-01-10T05:42:16.439Z,10.86
2023-01-10T05:43:16.395Z,10.91
2023-01-10T05:44:16.311Z,10.88
2023-01-10T05:45:16.596Z,10.86
2023-01-10T05:46:15.785Z,10.96
2023-01-10T05:47:15.990Z,10.88
2023-01-10T05:48:16.463Z,10.87
2023-01-10T05:49:15.938Z,10.90
2023-01-10T05:50:19.023Z,10.93
2023-01-10T05:51:16.329Z,10.80
2023-01-10T05:52:16.446Z,10.68
2023-01-10T05:53:16.930Z,10.56
2023-01-10T05:54:15.877Z,10.57
2023-01-10T05:55:16.284Z,10.53
2023-01-10T05:56:16.485Z,10.55
2023-01-10T05:57:16.354Z,10.46
2023-01-10T05:58:16.282Z,10.45
2023-01-10T05:59:27.520Z,10.44
2023-01-10T06:00:17.159Z,10.44
2023-01-10T06:01:16.908Z,10.47
2023-01-10T06:02:16.422Z,10.43
2023-01-10T06:03:16.373Z,10.40
2023-01-10T06:04:16.421Z,10.51
2023-01-10T06:05:16.255Z,10.54
2023-01-10T06:06:16.487Z,10.50
2023-01-10T06:07:15.974Z,10.33
2023-01-10T06:08:16.755Z,10.27
2023-01-10T06:09:16.271Z,10.23
2023-01-10T06:10:18.160Z,10.37
2023-01-10T06:11:16.595Z,10.32
2023-01-10T06:12:15.808Z,10.37
2023-01-10T06:13:20.705Z,10.42
2023-01-10T06:14:15.783Z,10.38
2023-01-10T06:15:16.710Z,10.40
2023-01-10T06:16:15.875Z,10.42
2023-01-10T06:17:16.116Z,10.40
2023-01-10T06:18:16.209Z,10.42
2023-01-10T06:19:16.749Z,10.43
2023-01-10T06:20:16.594Z,10.47
2023-01-10T06:21:16.678Z,10.52
2023-01-10T06:22:16.269Z,10.56
2023-01-10T06:23:15.944Z,10.62
2023-01-10T06:24:16.318Z,10.71
2023-01-10T06:25:16.980Z,10.64
2023-01-10T06:26:16.485Z,10.67
2023-01-10T06:27:16.290Z,10.56
2023-01-10T06:28:16.607Z,10.52
2023-01-10T06:29:16.802Z,10.57
2023-01-10T06:30:16.979Z,10.72
2023-01-10T06:31:16.428Z,10.71
2023-01-10T06:32:16.525Z,10.75
2023-01-10T06:33:16.538Z,10.71
2023-01-10T06:34:17.088Z,10.78
2023-01-10T06:35:16.829Z,10.81
2023-01-10T06:36:16.384Z,10.73
2023-01-10T06:37:15.399Z,10.75
2023-01-10T06:38:16.728Z,10.81
2023-01-10T06:39:16.449Z,10.85
2023-01-10T06:40:16.559Z,10.94
2023-01-10T06:41:16.083Z,10.93
2023-01-10T06:42:16.331Z,10.87
2023-01-10T06:43:16.559Z,10.85
2023-01-10T06:44:16.044Z,10.89
2023-01-10T06:45:16.779Z,11.00
2023-01-10T06:46:16.811Z,11.01
2023-01-10T06:47:16.278Z,10.92
2023-01-10T06:48:16.755Z,10.97
2023-01-10T06:49:16.399Z,11.03
2023-01-10T06:50:16.921Z,11.06
2023-01-10T06:51:19.832Z,11.07
2023-01-10T06:52:16.804Z,10.96
2023-01-10T06:53:16.707Z,10.86
2023-01-10T06:54:17.780Z,10.82
2023-01-10T06:55:17.753Z,10.90
2023-01-10T06:56:16.162Z,10.94
2023-01-10T06:57:16.451Z,10.90
2023-01-10T06:58:16.685Z,10.93
2023-01-10T06:59:16.206Z,11.01
2023-01-10T07:00:17.447Z,11.02
2023-01-10T07:01:16.570Z,10.96
2023-01-10T07:02:16.851Z,10.89
2023-01-10T07:03:17.185Z,10.98
2023-01-10T07:04:16.779Z,10.97
2023-01-10T07:05:17.792Z,10.90
2023-01-10T07:06:22.075Z,10.93
2023-01-10T07:07:16.824Z,10.88
2023-01-10T07:08:16.688Z,10.84
2023-01-10T07:09:16.940Z,10.85
2023-01-10T07:10:17.202Z,10.89
2023-01-10T07:11:17.517Z,10.90
2023-01-10T07:12:17.582Z,10.83
2023-01-10T07:13:16.336Z,10.85
2023-01-10T07:14:16.652Z,10.86
2023-01-10T07:15:16.929Z,10.85
2023-01-10T07:16:30.728Z,10.87
2023-01-10T07:17:16.518Z,10.93
2023-01-10T07:18:17.013Z,10.98
2023-01-10T07:19:17.033Z,10.96
2023-01-10T07:20:17.043Z,10.89
2023-01-10T07:21:16.592Z,10.89
2023-01-10T07:22:16.162Z,10.93
2023-01-10T07:23:16.594Z,10.95
2023-01-10T07:24:16.544Z,10.99
2023-01-10T07:25:15.817Z,10.98
2023-01-10T07:26:15.760Z,10.96
2023-01-10T07:27:16.013Z,11
2023-01-10T07:28:15.711Z,11
2023-01-10T07:29:27.023Z,11.00
2023-01-10T07:30:16.205Z,10.98
2023-01-10T07:31:16.485Z,10.79
2023-01-10T07:32:16.130Z,10.81
2023-01-10T07:33:16.064Z,10.90
2023-01-10T07:34:16.113Z,10.97
2023-01-10T07:35:16.354Z,10.98
2023-01-10T07:36:15.939Z,10.97
2023-01-10T07:37:16.015Z,10.95
2023-01-10T07:38:16.017Z,10.97
2023-01-10T07:39:16.633Z,10.94
2023-01-10T07:40:16.015Z,10.87
2023-01-10T07:41:16.390Z,10.90
2023-01-10T07:42:16.113Z,10.93
2023-01-10T07:43:15.943Z,10.90
2023-01-10T07:44:15.708Z,10.85
2023-01-10T07:45:16.069Z,10.89
2023-01-10T07:46:16.115Z,10.94
2023-01-10T07:47:16.291Z,10.94
2023-01-10T07:48:16.023Z,10.89
2023-01-10T07:49:16.337Z,10.89
2023-01-10T07:50:17.962Z,10.94
2023-01-10T07:51:16.328Z,10.95
2023-01-10T07:52:16.154Z,10.93
2023-01-10T07:53:16.011Z,10.88
2023-01-10T07:54:16.039Z,10.85
2023-01-10T07:55:16.205Z,10.90
2023-01-10T07:56:16.303Z,10.95
2023-01-10T07:57:16.674Z,10.95
2023-01-10T07:58:15.966Z,10.93
2023-01-10T07:59:16.112Z,10.96
2023-01-10T08:00:18.708Z,10.99
2023-01-10T08:01:16.513Z,10.94
2023-01-10T08:02:15.994Z,11
2023-01-10T08:03:16.299Z,11.02
2023-01-10T08:04:16.074Z,11.06
2023-01-10T08:05:15.995Z,11.06
2023-01-10T08:06:16.892Z,11.07
2023-01-10T08:07:16.131Z,11.02
2023-01-10T08:08:16.179Z,11.07
2023-01-10T08:09:16.028Z,11.09
2023-01-10T08:10:16.233Z,11.12
2023-01-10T08:11:16.508Z,11.18
2023-01-10T08:12:16.155Z,11.21
2023-01-10T08:13:18.900Z,11.25
2023-01-10T08:14:16.058Z,11.28
2023-01-10T08:15:15.923Z,11.28
2023-01-10T08:16:15.892Z,11.31
2023-01-10T08:17:16.547Z,11.35
2023-01-10T08:18:16.478Z,11.39
2023-01-10T08:19:16.876Z,11.40
2023-01-10T08:20:16.343Z,11.40
2023-01-10T08:21:16.280Z,11.42
2023-01-10T08:22:16.270Z,11.42
2023-01-10T08:23:16.344Z,11.42
2023-01-10T08:24:16.036Z,11.41
2023-01-10T08:25:16.397Z,11.40
2023-01-10T08:26:16.039Z,11.43
2023-01-10T08:27:16.071Z,11.45
2023-01-10T08:28:16.383Z,11.46
2023-01-10T08:29:16.226Z,11.47
2023-01-10T08:30:16.556Z,11.44
2023-01-10T08:31:16.119Z,11.30
2023-01-10T08:32:15.962Z,11.19
2023-01-10T08:33:16.444Z,11.19
2023-01-10T08:34:16.068Z,11.20
2023-01-10T08:35:15.816Z,11.09
2023-01-10T08:36:15.745Z,11.06
2023-01-10T08:37:16.312Z,11.13
2023-01-10T08:38:16.031Z,11.10
2023-01-10T08:39:16.347Z,11.04
2023-01-10T08:40:16.173Z,11.10
2023-01-10T08:41:15.855Z,11.10
2023-01-10T08:42:15.886Z,11.03
2023-01-10T08:43:16.103Z,11.03
2023-01-10T08:44:16.005Z,11.03
2023-01-10T08:45:16.195Z,11.06
2023-01-10T08:46:16.044Z,11.08
2023-01-10T08:47:16.390Z,11.05
2023-01-10T08:48:15.812Z,11.12
2023-01-10T08:49:15.857Z,11.24
2023-01-10T08:50:15.660Z,11.32
2023-01-10T08:51:15.968Z,11.29
2023-01-10T08:52:15.619Z,11.36
2023-01-10T08:53:16.041Z,11.42
2023-01-10T08:54:15.661Z,11.49
2023-01-10T08:55:16.457Z,11.52
2023-01-10T08:56:15.926Z,11.5
2023-01-10T08:57:15.854Z,11.5
2023-01-10T08:58:15.680Z,11.56
2023-01-10T08:59:15.770Z,11.53
2023-01-10T09:00:16.089Z,11.57
2023-01-10T09:01:16.128Z,11.70
2023-01-10T09:02:16.321Z,11.85
2023-01-10T09:03:16.154Z,11.97
2023-01-10T09:04:15.910Z,12.05
2023-01-10T09:05:26.768Z,12.09
2023-01-10T09:06:16.064Z,12.06
2023-01-10T09:07:16.237Z,11.94
2023-01-10T09:08:16.151Z,11.97
2023-01-10T09:09:16.635Z,12.02
2023-01-10T09:10:16.078Z,12.18
2023-01-10T09:11:16.055Z,12.25
2023-01-10T09:12:15.823Z,12.38
2023-01-10T09:13:16.033Z,12.44
2023-01-10T09:14:16.013Z,12.37
2023-01-10T09:15:16.219Z,12.27
2023-01-10T09:16:16.131Z,12.22
2023-01-10T09:17:16.317Z,12.23
2023-01-10T09:18:16.293Z,12.32
2023-01-10T09:19:16.017Z,12.37
2023-01-10T09:20:15.819Z,12.36
2023-01-10T09:21:15.917Z,12.35
2023-01-10T09:22:15.524Z,12.33
2023-01-10T09:23:16.437Z,12.36
2023-01-10T09:24:15.954Z,12.42
2023-01-10T09:25:16.111Z,12.43
2023-01-10T09:26:15.796Z,12.51
2023-01-10T09:27:16.031Z,12.59
2023-01-10T09:28:15.782Z,12.70
2023-01-10T09:29:20.912Z,12.81
2023-01-10T09:30:15.970Z,12.86
2023-01-10T09:31:16.039Z,12.83
2023-01-10T09:32:15.948Z,12.95
2023-01-10T09:33:25.279Z,13.00
2023-01-10T09:34:16.153Z,12.97
2023-01-10T09:35:16.193Z,13.10
2023-01-10T09:36:16.142Z,13.21
2023-01-10T09:37:16.556Z,13.13
2023-01-10T09:38:16.159Z,13.14
2023-01-10T09:39:30.037Z,13.19
2023-01-10T09:40:15.803Z,13.26
2023-01-10T09:41:15.957Z,13.20
2023-01-10T09:42:15.607Z,13.25
2023-01-10T09:43:15.579Z,13.29
2023-01-10T09:44:16.031Z,13.26
2023-01-10T09:45:16.336Z,13.23
2023-01-10T09:46:15.895Z,13.22
2023-01-10T09:47:22.526Z,13.24
2023-01-10T09:48:15.587Z,13.26
2023-01-10T09:49:15.846Z,13.36
2023-01-10T09:50:16.005Z,13.44
2023-01-10T09:51:15.765Z,13.49
2023-01-10T09:52:16.356Z,13.47
2023-01-10T09:53:15.869Z,13.44
2023-01-10T09:54:15.903Z,13.41
2023-01-10T09:55:15.987Z,13.43
2023-01-10T09:56:15.876Z,13.41
2023-01-10T09:57:15.725Z,13.41
2023-01-10T09:58:15.542Z,13.43
2023-01-10T09:59:15.690Z,13.5
2023-01-10T10:00:16.182Z,13.46
2023-01-10T10:01:16.462Z,13.47
2023-01-10T10:02:15.994Z,13.53
2023-01-10T10:03:16.145Z,13.52
2023-01-10T10:04:16.135Z,13.51
2023-01-10T10:05:16.352Z,13.56
2023-01-10T10:06:16.135Z,13.57
2023-01-10T10:07:16.044Z,13.55
2023-01-10T10:08:15.736Z,13.55
2023-01-10T10:09:16.032Z,13.48
2023-01-10T10:10:16.205Z,13.55
2023-01-10T10:11:16.006Z,13.56
2023-01-10T10:12:15.887Z,13.57
2023-01-10T10:13:26.351Z,13.62
2023-01-10T10:14:16.266Z,13.62
2023-01-10T10:15:16.231Z,13.68
2023-01-10T10:16:15.924Z,13.69
2023-01-10T10:17:16.270Z,13.77
2023-01-10T10:18:15.878Z,13.85
2023-01-10T10:19:15.993Z,13.81
2023-01-10T10:20:15.849Z,13.80
2023-01-10T10:21:16.020Z,13.76
2023-01-10T10:22:16.898Z,13.81
2023-01-10T10:23:16.223Z,13.84
2023-01-10T10:24:16.009Z,13.84
2023-01-10T10:25:16.693Z,13.88
2023-01-10T10:26:15.799Z,13.89
2023-01-10T10:27:16.154Z,13.96
2023-01-10T10:28:16.041Z,13.96
2023-01-10T10:29:15.984Z,13.95
2023-01-10T10:30:16.215Z,14.01
2023-01-10T10:31:16.213Z,14.05
2023-01-10T10:32:16.202Z,14.16
2023-01-10T10:33:16.391Z,14.26
2023-01-10T10:34:15.916Z,14.25
2023-01-10T10:35:16.283Z,14.21
2023-01-10T10:36:16.151Z,14.27
2023-01-10T10:37:16.060Z,14.38
2023-01-10T10:38:15.806Z,14.48
2023-01-10T10:39:16.044Z,14.52
2023-01-10T10:40:16.189Z,14.61
2023-01-10T10:41:16.249Z,14.69
2023-01-10T10:42:16.585Z,14.67
2023-01-10T10:43:15.717Z,14.70
2023-01-10T10:44:15.884Z,14.74
2023-01-10T10:45:16.342Z,14.74
2023-01-10T10:46:16.209Z,14.67
2023-01-10T10:47:16.042Z,14.72
2023-01-10T10:48:15.939Z,14.77
2023-01-10T10:49:18.652Z,14.77
2023-01-10T10:50:16.379Z,14.82
2023-01-10T10:51:15.848Z,14.82
2023-01-10T10:52:16.005Z,14.78
2023-01-10T10:53:15.932Z,14.81
2023-01-10T10:54:15.688Z,14.83
2023-01-10T10:55:16.164Z,14.78
2023-01-10T10:56:15.735Z,14.81
2023-01-10T10:57:16.030Z,14.80
2023-01-10T10:58:16.210Z,14.78
2023-01-10T10:59:16.296Z,14.77
2023-01-10T11:00:17.376Z,14.75
2023-01-10T11:01:16.225Z,14.77
2023-01-10T11:02:15.860Z,14.77
2023-01-10T11:03:15.888Z,14.85
2023-01-10T11:04:15.929Z,14.82
2023-01-10T11:05:16.527Z,14.82
2023-01-10T11:06:16.362Z,14.87
2023-01-10T11:07:16.488Z,14.83
2023-01-10T11:08:16.435Z,14.78
2023-01-10T11:09:16.117Z,14.80
2023-01-10T11:10:16.229Z,14.83
2023-01-10T11:11:16.036Z,14.83
2023-01-10T11:12:16.453Z,14.80
2023-01-10T11:13:16.017Z,14.76
2023-01-10T11:14:15.957Z,14.81
2023-01-10T11:15:16.099Z,14.78
2023-01-10T11:16:16.061Z,14.78
2023-01-10T11:17:16.545Z,14.77
2023-01-10T11:18:16.023Z,14.78
2023-01-10T11:19:16.708Z,14.82
2023-01-10T11:20:16.399Z,14.87
2023-01-10T11:21:16.771Z,14.84
2023-01-10T11:22:16.354Z,14.81
2023-01-10T11:23:16.878Z,14.83
2023-01-10T11:24:16.004Z,14.88
2023-01-10T11:25:16.506Z,14.94
2023-01-10T11:26:15.927Z,14.90
2023-01-10T11:27:16.453Z,14.89
2023-01-10T11:28:16.186Z,14.83
2023-01-10T11:29:16.328Z,14.81
2023-01-10T11:30:16.485Z,14.88
2023-01-10T11:31:16.304Z,14.90
2023-01-10T11:32:16.111Z,14.90
2023-01-10T11:33:16.107Z,14.86
2023-01-10T11:34:16.272Z,14.86
2023-01-10T11:35:17.011Z,14.90
2023-01-10T11:36:16.312Z,14.89
2023-01-10T11:37:15.889Z,14.83
2023-01-10T11:38:16.079Z,14.83
2023-01-10T11:39:16.531Z,14.77
2023-01-10T11:40:18.519Z,14.76
2023-01-10T11:41:16.908Z,14.81
2023-01-10T11:42:16.435Z,14.85
2023-01-10T11:43:16.369Z,14.83
2023-01-10T11:44:17.989Z,14.78
2023-01-10T11:45:16.541Z,14.80
2023-01-10T11:46:15.877Z,14.78
2023-01-10T11:47:16.289Z,14.82
2023-01-10T11:48:22.960Z,14.82
2023-01-10T11:49:16.127Z,14.83
2023-01-10T11:50:16.230Z,14.77
2023-01-10T11:51:16.310Z,14.78
2023-01-10T11:52:15.472Z,14.80
2023-01-10T11:53:16.304Z,14.77
2023-01-10T11:54:15.804Z,14.76
2023-01-10T11:55:16.512Z,14.77
2023-01-10T11:56:16.269Z,14.80
2023-01-10T11:57:16.711Z,14.80
2023-01-10T11:58:15.895Z,14.76
2023-01-10T11:59:16.156Z,14.77
2023-01-10T12:00:24.455Z,14.79
2023-01-10T12:01:16.031Z,14.78
2023-01-10T12:02:24.219Z,14.76
2023-01-10T12:03:16.564Z,14.77
2023-01-10T12:04:24.290Z,14.85
2023-01-10T12:05:16.643Z,14.82
2023-01-10T12:06:30.542Z,14.76
2023-01-10T12:07:15.901Z,14.75
2023-01-10T12:08:30.051Z,14.78
2023-01-10T12:09:16.167Z,14.80
2023-01-10T12:10:16.754Z,14.78
2023-01-10T12:11:16.020Z,14.83
2023-01-10T12:12:30.058Z,14.83
2023-01-10T12:13:16.140Z,14.80
2023-01-10T12:14:16.248Z,14.82
2023-01-10T12:15:16.548Z,14.81
2023-01-10T12:16:16.098Z,14.80
2023-01-10T12:17:16.729Z,14.77
2023-01-10T12:18:16.519Z,14.73
2023-01-10T12:19:16.726Z,14.79
2023-01-10T12:20:16.224Z,14.75
2023-01-10T12:21:16.554Z,14.78
2023-01-10T12:22:16.565Z,14.77
2023-01-10T12:23:16.586Z,14.80
2023-01-10T12:24:16.502Z,14.80
2023-01-10T12:25:16.438Z,14.78
2023-01-10T12:26:15.687Z,14.79
2023-01-10T12:27:16.073Z,14.80
2023-01-10T12:28:16.004Z,14.80
2023-01-10T12:29:16.378Z,14.76
2023-01-10T12:30:16.583Z,14.79
2023-01-10T12:31:16.115Z,14.77
2023-01-10T12:32:16.159Z,14.76
2023-01-10T12:33:16.532Z,14.77
2023-01-10T12:34:16.115Z,14.75
2023-01-10T12:35:16.124Z,14.77
2023-01-10T12:36:16.272Z,14.76
2023-01-10T12:37:16.124Z,14.77
2023-01-10T12:38:15.922Z,14.75
2023-01-10T12:39:16.052Z,14.77
2023-01-10T12:40:16.321Z,14.84
2023-01-10T12:41:16.153Z,14.86
2023-01-10T12:42:16.185Z,14.83
2023-01-10T12:43:16.071Z,14.80
2023-01-10T12:44:16.027Z,14.82
2023-01-10T12:45:16.376Z,14.86
2023-01-10T12:46:33.574Z,14.88
2023-01-10T12:47:16.435Z,14.82
2023-01-10T12:48:16.793Z,14.87
2023-01-10T12:49:15.895Z,14.92
2023-01-10T12:50:16.027Z,14.94
2023-01-10T12:51:15.879Z,14.87
2023-01-10T12:52:15.630Z,14.77
2023-01-10T12:53:15.688Z,14.76
2023-01-10T12:54:16.464Z,14.82
2023-01-10T12:55:16.415Z,14.86